Flugplatz Schwandorf

Für EDPF sind keine METAR/TAF Berichte vorhanden.
Es werden die Flugwettermeldungen vom Flugplatz Hohenfels Army Air Field in 28 km Entfernung angezeigt.

Bericht für ETIH

vom 23.08. um 11:56 UTC

kein Wind

Sichtweite 10 km oder mehr

aufgebrochene Bewölkung in 4500 ft

Temperatur 23.2°C

Taupunkt 17.4°C

Luftfeuchtigkeit 70%

Luftdruck 1026 hPa

ETIH 231156Z AUTO 00000KT 9999 BKN045 23/17 A3030 RMK AO2 SLP254 60000 T02320174 10237 20121 57012
Keine Prognose (TAF) verfügbar.
Impressum